createdAt,value
2018-09-21T00:00:39.522Z,3.10
2018-09-21T00:03:08.714Z,5.57
2018-09-21T00:05:36.803Z,5.53
2018-09-21T00:08:04.874Z,3.17
2018-09-21T00:10:32.931Z,3.13
2018-09-21T00:13:01.004Z,6.30
2018-09-21T00:15:29.150Z,3.20
2018-09-21T00:17:57.474Z,5.23
2018-09-21T00:20:25.519Z,6.33
2018-09-21T00:22:53.570Z,5.37
2018-09-21T00:25:21.785Z,3.50
2018-09-21T00:27:49.842Z,4.97
2018-09-21T00:30:18.078Z,4.10
2018-09-21T00:32:46.147Z,4.10
2018-09-21T00:35:14.203Z,8.17
2018-09-21T00:37:42.523Z,3.10
2018-09-21T00:40:10.579Z,4.50
2018-09-21T00:42:38.646Z,7.20
2018-09-21T00:45:06.711Z,3.17
2018-09-21T00:47:34.758Z,5.53
2018-09-21T00:50:02.849Z,5.43
2018-09-21T00:52:30.922Z,2.63
2018-09-21T00:54:59.006Z,3.13
2018-09-21T00:57:27.058Z,3.40
2018-09-21T00:59:55.125Z,5.37
2018-09-21T01:02:23.182Z,3.73
2018-09-21T01:04:51.230Z,3.50
2018-09-21T01:07:19.295Z,4.53
2018-09-21T01:09:47.402Z,5.97
2018-09-21T01:12:15.454Z,4.17
2018-09-21T01:14:43.524Z,4.07
2018-09-21T01:17:11.578Z,4.40
2018-09-21T01:19:39.645Z,3.20
2018-09-21T01:22:07.700Z,5.07
2018-09-21T01:24:35.758Z,2.20
2018-09-21T01:27:03.834Z,5.40
2018-09-21T01:29:31.915Z,2.60
2018-09-21T01:31:59.990Z,3.60
2018-09-21T01:34:28.345Z,3.40
2018-09-21T01:36:56.406Z,3.23
2018-09-21T01:39:24.470Z,3.83
2018-09-21T01:41:52.570Z,3.10
2018-09-21T01:44:20.910Z,5.00
2018-09-21T01:46:48.982Z,2.93
2018-09-21T01:49:17.049Z,3.83
2018-09-21T01:51:45.236Z,5.83
2018-09-21T01:54:13.313Z,4.07
2018-09-21T01:56:41.440Z,6.87
2018-09-21T01:59:09.517Z,4.50
2018-09-21T02:01:37.573Z,4.83
2018-09-21T02:04:05.646Z,2.00
2018-09-21T02:06:33.710Z,3.50
2018-09-21T02:09:01.787Z,2.47
2018-09-21T02:11:29.836Z,3.37
2018-09-21T02:13:57.890Z,2.77
2018-09-21T02:16:25.951Z,4.77
2018-09-21T02:18:54.018Z,3.47
2018-09-21T02:21:22.100Z,6.83
2018-09-21T02:23:50.164Z,2.37
2018-09-21T02:26:18.253Z,2.43
2018-09-21T02:28:46.322Z,3.90
2018-09-21T02:31:14.389Z,3.97
2018-09-21T02:33:42.930Z,3.03
2018-09-21T02:36:11.023Z,6.40
2018-09-21T02:38:39.098Z,4.37
2018-09-21T02:41:07.315Z,2.83
2018-09-21T02:43:35.369Z,1.50
2018-09-21T02:46:03.456Z,3.50
2018-09-21T02:48:31.546Z,3.20
2018-09-21T02:50:59.632Z,2.67
2018-09-21T02:53:27.718Z,2.57
2018-09-21T02:55:55.782Z,5.87
2018-09-21T02:58:23.874Z,3.03
2018-09-21T03:00:52.146Z,2.80
2018-09-21T03:03:20.047Z,1.97
2018-09-21T03:05:48.170Z,4.27
2018-09-21T03:08:16.259Z,4.50
2018-09-21T03:10:44.314Z,3.93
2018-09-21T03:13:12.413Z,4.87
2018-09-21T03:15:40.439Z,3.13
2018-09-21T03:18:08.510Z,4.30
2018-09-21T03:20:36.574Z,2.00
2018-09-21T03:23:04.650Z,4.03
2018-09-21T03:25:32.706Z,4.00
2018-09-21T03:28:00.758Z,2.97
2018-09-21T03:30:28.840Z,3.27
2018-09-21T03:32:56.906Z,2.53
2018-09-21T03:35:25.359Z,4.43
2018-09-21T03:37:53.396Z,4.67
2018-09-21T03:40:21.452Z,5.43
2018-09-21T03:42:49.730Z,4.53
2018-09-21T03:45:17.770Z,3.53
2018-09-21T03:47:45.834Z,3.53
2018-09-21T03:50:13.930Z,2.73
2018-09-21T03:52:42.048Z,2.95
2018-09-21T03:55:10.103Z,3.70
2018-09-21T03:57:38.174Z,3.30
2018-09-21T04:00:06.786Z,4.00
2018-09-21T04:02:34.902Z,4.50
2018-09-21T04:05:02.966Z,5.27
2018-09-21T04:07:31.030Z,4.37
2018-09-21T04:09:59.090Z,3.67
2018-09-21T04:12:27.154Z,5.40
2018-09-21T04:14:55.206Z,7.80
2018-09-21T04:17:23.298Z,3.93
2018-09-21T04:19:51.404Z,3.20
2018-09-21T04:22:19.461Z,5.20
2018-09-21T04:24:47.591Z,2.73
2018-09-21T04:27:15.678Z,3.67
2018-09-21T04:29:43.752Z,2.90
2018-09-21T04:32:11.824Z,5.20
2018-09-21T04:34:39.954Z,5.47
2018-09-21T04:37:08.042Z,5.47
2018-09-21T04:39:36.106Z,6.03
2018-09-21T04:42:04.182Z,4.80
2018-09-21T04:44:32.318Z,3.03
2018-09-21T04:47:00.397Z,4.10
2018-09-21T04:49:28.462Z,4.60
2018-09-21T04:51:56.574Z,3.57
2018-09-21T04:54:24.639Z,6.77
2018-09-21T04:56:52.724Z,4.57
2018-09-21T04:59:20.782Z,3.10
2018-09-21T05:01:48.897Z,3.83
2018-09-21T05:04:16.982Z,2.20
2018-09-21T05:06:45.051Z,4.20
2018-09-21T05:09:13.119Z,4.77
2018-09-21T05:11:41.218Z,5.50
2018-09-21T05:14:09.331Z,4.57
2018-09-21T05:16:37.410Z,5.03
2018-09-21T05:19:05.540Z,5.70
2018-09-21T05:21:33.602Z,4.03
2018-09-21T05:24:01.682Z,5.43
2018-09-21T05:26:29.771Z,15.23
2018-09-21T05:28:57.854Z,2.80
2018-09-21T05:31:25.928Z,3.97
2018-09-21T05:33:54.129Z,4.80
2018-09-21T05:36:22.182Z,3.87
2018-09-21T05:38:50.267Z,5.10
2018-09-21T05:41:18.340Z,2.80
2018-09-21T05:43:46.457Z,2.87
2018-09-21T05:46:14.541Z,3.77
2018-09-21T05:48:42.609Z,2.30
2018-09-21T05:51:10.710Z,5.73
2018-09-21T05:53:38.794Z,4.63
2018-09-21T05:56:07.259Z,4.77
2018-09-21T05:58:35.401Z,2.60
2018-09-21T06:01:03.419Z,6.53
2018-09-21T06:03:31.534Z,4.73
2018-09-21T06:05:59.606Z,4.60
2018-09-21T06:08:27.687Z,5.57
2018-09-21T06:10:55.742Z,3.80
2018-09-21T06:13:23.805Z,6.67
2018-09-21T06:15:53.793Z,2.80
2018-09-21T06:18:21.898Z,4.13
2018-09-21T06:20:50.013Z,3.97
2018-09-21T06:23:18.114Z,4.70
2018-09-21T06:25:46.178Z,5.20
2018-09-21T06:28:14.249Z,7.30
2018-09-21T06:30:42.318Z,3.33
2018-09-21T06:33:10.398Z,4.80
2018-09-21T06:35:38.462Z,3.80
2018-09-21T06:38:06.594Z,5.33
2018-09-21T06:40:34.682Z,2.27
2018-09-21T06:43:02.906Z,3.30
2018-09-21T06:45:30.982Z,4.60
2018-09-21T06:47:59.050Z,5.20
2018-09-21T06:50:27.106Z,4.07
2018-09-21T06:52:55.207Z,5.87
2018-09-21T06:55:23.297Z,5.10
2018-09-21T06:57:51.373Z,4.67
2018-09-21T07:00:19.430Z,6.13
2018-09-21T07:02:47.499Z,1.90
2018-09-21T07:05:17.456Z,1.87
2018-09-21T07:07:45.931Z,2.40
2018-09-21T07:10:14.524Z,4.00
2018-09-21T07:12:43.340Z,4.60
2018-09-21T07:15:11.406Z,3.30
2018-09-21T07:17:40.132Z,3.23
2018-09-21T07:20:08.199Z,4.17
2018-09-21T07:22:36.266Z,2.60
2018-09-21T07:25:04.442Z,2.40
2018-09-21T07:27:32.513Z,2.73
2018-09-21T07:30:00.610Z,2.87
2018-09-21T07:32:28.670Z,4.67
2018-09-21T07:34:56.854Z,2.70
2018-09-21T07:37:24.970Z,5.07
2018-09-21T07:39:52.990Z,6.80
2018-09-21T07:42:22.484Z,6.43
2018-09-21T07:44:50.545Z,6.87
2018-09-21T07:47:18.635Z,4.43
2018-09-21T07:49:46.717Z,7.40
2018-09-21T07:52:14.795Z,5.33
2018-09-21T07:54:42.911Z,4.03
2018-09-21T07:57:11.019Z,3.97
2018-09-21T07:59:39.127Z,2.60
2018-09-21T08:02:07.250Z,3.17
2018-09-21T08:04:35.338Z,4.27
2018-09-21T08:07:03.465Z,12.77
2018-09-21T08:09:31.871Z,4.70
2018-09-21T08:11:59.962Z,8.50
2018-09-21T08:14:28.093Z,3.77
2018-09-21T08:16:57.025Z,5.93
2018-09-21T08:19:25.166Z,10.27
2018-09-21T08:21:53.303Z,9.07
2018-09-21T08:24:21.419Z,5.40
2018-09-21T08:27:08.005Z,4.50
2018-09-21T08:29:36.381Z,5.77
2018-09-21T08:32:04.835Z,3.40
2018-09-21T08:34:33.297Z,6.57
2018-09-21T08:37:02.400Z,7.67
2018-09-21T08:39:32.040Z,6.27
2018-09-21T08:42:02.777Z,5.47
2018-09-21T08:44:32.025Z,6.17
2018-09-21T08:47:00.700Z,8.10
2018-09-21T08:49:28.936Z,8.73
2018-09-21T08:51:57.091Z,4.73
2018-09-21T08:54:25.239Z,3.73
2018-09-21T08:56:53.394Z,4.27
2018-09-21T08:59:21.523Z,2.67
2018-09-21T09:01:49.662Z,5.90
2018-09-21T09:04:17.779Z,4.13
2018-09-21T09:06:45.987Z,6.13
2018-09-21T09:09:14.130Z,5.97
2018-09-21T09:11:42.576Z,4.77
2018-09-21T09:14:11.071Z,5.53
2018-09-21T09:16:39.268Z,7.73
2018-09-21T09:19:07.431Z,5.30
2018-09-21T09:21:35.579Z,3.17
2018-09-21T09:24:03.965Z,4.00
2018-09-21T09:26:32.103Z,3.13
2018-09-21T09:29:00.282Z,3.83
2018-09-21T09:31:29.369Z,26.40
2018-09-21T09:33:57.542Z,8.83
2018-09-21T09:36:27.743Z,3.73
2018-09-21T09:38:55.989Z,5.57
2018-09-21T09:41:24.159Z,7.73
2018-09-21T09:43:52.286Z,6.50
2018-09-21T09:46:20.407Z,8.97
2018-09-21T09:48:48.557Z,4.60
2018-09-21T09:51:16.614Z,4.93
2018-09-21T09:53:44.676Z,6.83
2018-09-21T09:56:12.835Z,3.00
2018-09-21T09:58:40.894Z,3.43
2018-09-21T10:01:09.022Z,5.27
2018-09-21T10:03:37.202Z,2.37
2018-09-21T10:06:05.203Z,4.67
2018-09-21T10:08:33.377Z,5.93
2018-09-21T10:11:01.468Z,8.60
2018-09-21T10:13:29.792Z,5.37
2018-09-21T10:15:57.999Z,7.93
2018-09-21T10:18:26.883Z,4.37
2018-09-21T10:20:55.050Z,3.97
2018-09-21T10:23:23.316Z,6.57
2018-09-21T10:25:51.458Z,5.03
2018-09-21T10:28:19.771Z,5.73
2018-09-21T10:30:48.112Z,3.43
2018-09-21T10:33:16.892Z,6.77
2018-09-21T10:35:45.037Z,8.20
2018-09-21T10:38:13.282Z,3.07
2018-09-21T10:40:41.619Z,3.93
2018-09-21T10:43:09.800Z,2.67
2018-09-21T10:45:37.935Z,5.73
2018-09-21T10:48:06.082Z,4.23
2018-09-21T10:50:34.207Z,5.90
2018-09-21T10:53:02.383Z,3.13
2018-09-21T10:55:30.617Z,2.83
2018-09-21T10:57:58.818Z,1.07
2018-09-21T11:00:27.051Z,2.50
2018-09-21T11:02:55.164Z,5.73
2018-09-21T11:05:23.481Z,3.97
2018-09-21T11:07:51.603Z,6.17
2018-09-21T11:10:19.717Z,1.80
2018-09-21T11:12:47.898Z,3.23
2018-09-21T11:15:15.984Z,4.23
2018-09-21T11:17:44.063Z,2.40
2018-09-21T11:20:12.197Z,3.03
2018-09-21T11:22:40.314Z,2.37
2018-09-21T11:25:08.521Z,3.90
2018-09-21T11:27:36.678Z,4.63
2018-09-21T11:30:05.023Z,3.90
2018-09-21T11:32:33.107Z,3.60
2018-09-21T11:35:01.498Z,3.57
2018-09-21T11:37:29.584Z,1.97
2018-09-21T11:39:57.705Z,1.27
2018-09-21T11:42:25.843Z,3.23
2018-09-21T11:44:53.975Z,4.00
2018-09-21T11:47:22.397Z,3.23
2018-09-21T11:49:50.374Z,2.77
2018-09-21T11:52:18.459Z,0.97
2018-09-21T11:54:46.540Z,1.53
2018-09-21T11:57:14.667Z,4.37
2018-09-21T11:59:42.843Z,2.33
2018-09-21T12:02:10.940Z,4.33
2018-09-21T12:04:39.120Z,1.60
2018-09-21T12:07:07.237Z,2.63
2018-09-21T12:09:35.528Z,2.07
2018-09-21T12:12:03.648Z,2.27
2018-09-21T12:14:31.715Z,1.70
2018-09-21T12:16:59.912Z,2.03
2018-09-21T12:19:27.956Z,1.40
2018-09-21T12:21:56.107Z,2.20
2018-09-21T12:24:24.238Z,2.87
2018-09-21T12:26:52.368Z,0.70
2018-09-21T12:29:20.463Z,2.17
2018-09-21T12:31:48.630Z,1.23
2018-09-21T12:34:16.715Z,3.20
2018-09-21T12:36:44.901Z,3.90
2018-09-21T12:39:13.983Z,1.30
2018-09-21T12:41:42.372Z,1.93
2018-09-21T12:44:12.294Z,2.40
2018-09-21T12:46:40.451Z,4.03
2018-09-21T12:49:08.584Z,3.20
2018-09-21T12:51:36.761Z,1.90
2018-09-21T12:54:04.830Z,1.57
2018-09-21T12:56:32.935Z,2.40
2018-09-21T12:59:01.007Z,1.00
2018-09-21T13:01:29.119Z,0.57
2018-09-21T13:03:57.239Z,3.00
2018-09-21T13:06:25.442Z,1.87
2018-09-21T13:08:53.523Z,1.07
2018-09-21T13:11:21.704Z,2.57
2018-09-21T13:13:49.783Z,1.80
2018-09-21T13:16:17.935Z,1.93
2018-09-21T13:18:46.052Z,1.97
2018-09-21T13:21:14.182Z,1.87
2018-09-21T13:23:42.287Z,0.53
2018-09-21T13:26:10.383Z,0.90
2018-09-21T13:28:38.478Z,3.00
2018-09-21T13:31:06.646Z,1.00
2018-09-21T13:33:35.275Z,1.20
2018-09-21T13:36:03.359Z,1.13
2018-09-21T13:38:31.471Z,6.33
2018-09-21T13:40:59.587Z,2.80
2018-09-21T13:43:27.730Z,1.07
2018-09-21T13:45:55.828Z,2.00
2018-09-21T13:48:24.046Z,2.27
2018-09-21T13:50:52.115Z,1.63
2018-09-21T13:53:20.246Z,2.07
2018-09-21T13:55:48.375Z,0.87
2018-09-21T13:58:16.578Z,0.53
2018-09-21T14:00:44.660Z,1.90
2018-09-21T14:03:12.771Z,1.23
2018-09-21T14:05:41.215Z,2.13
2018-09-21T14:08:09.281Z,1.77
2018-09-21T14:10:37.407Z,1.50
2018-09-21T14:13:05.644Z,1.77
2018-09-21T14:15:33.824Z,2.97
2018-09-21T14:18:01.983Z,3.23
2018-09-21T14:20:30.097Z,1.73
2018-09-21T14:22:58.228Z,1.43
2018-09-21T14:25:26.336Z,1.03
2018-09-21T14:27:54.520Z,2.20
2018-09-21T14:30:22.691Z,0.80
2018-09-21T14:32:50.862Z,1.43
2018-09-21T14:35:19.054Z,1.23
2018-09-21T14:37:47.182Z,2.60
2018-09-21T14:40:15.555Z,1.27
2018-09-21T14:42:43.704Z,0.73
2018-09-21T14:45:11.802Z,2.17
2018-09-21T14:47:39.946Z,2.97
2018-09-21T14:50:08.537Z,1.60
2018-09-21T14:52:36.942Z,4.27
2018-09-21T14:55:06.109Z,1.73
2018-09-21T14:57:34.639Z,2.00
2018-09-21T15:00:02.798Z,2.70
2018-09-21T15:02:31.044Z,2.63
2018-09-21T15:04:59.236Z,6.40
2018-09-21T15:07:27.363Z,3.77
2018-09-21T15:09:55.451Z,4.23
2018-09-21T15:12:23.543Z,3.63
2018-09-21T15:14:51.671Z,5.07
2018-09-21T15:17:19.848Z,2.50
2018-09-21T15:19:48.006Z,2.20
2018-09-21T15:22:16.260Z,11.47
2018-09-21T15:24:44.314Z,7.70
2018-09-21T15:27:12.409Z,3.93
2018-09-21T15:29:40.548Z,2.93
2018-09-21T15:32:08.619Z,1.07
2018-09-21T15:34:36.696Z,3.60
2018-09-21T15:37:04.800Z,3.77
2018-09-21T15:39:32.967Z,1.70
2018-09-21T15:42:01.059Z,3.17
2018-09-21T15:44:29.174Z,5.43
2018-09-21T15:46:57.276Z,2.57
2018-09-21T15:49:25.361Z,2.83
2018-09-21T15:51:53.586Z,3.13
2018-09-21T15:54:21.791Z,2.80
2018-09-21T15:56:49.873Z,4.03
2018-09-21T15:59:18.031Z,4.50
2018-09-21T16:01:46.154Z,3.70
2018-09-21T16:04:14.303Z,3.37
2018-09-21T16:06:42.360Z,5.53
2018-09-21T16:09:10.751Z,4.70
2018-09-21T16:11:38.966Z,1.10
2018-09-21T16:14:07.669Z,2.00
2018-09-21T16:16:36.468Z,4.20
2018-09-21T16:19:04.522Z,1.63
2018-09-21T16:21:32.602Z,1.57
2018-09-21T16:24:01.419Z,2.93
2018-09-21T16:26:29.575Z,6.77
2018-09-21T16:28:57.646Z,27.33
2018-09-21T16:31:25.735Z,31.57
2018-09-21T16:33:53.890Z,30.83
2018-09-21T16:36:22.050Z,33.10
2018-09-21T16:38:50.221Z,33.90
2018-09-21T16:41:18.522Z,25.93
2018-09-21T16:43:46.665Z,27.50
2018-09-21T16:46:14.790Z,31.00
2018-09-21T16:48:42.936Z,33.40
2018-09-21T16:51:11.059Z,25.77
2018-09-21T16:53:39.115Z,24.90
2018-09-21T16:56:07.205Z,24.10
2018-09-21T16:58:35.297Z,22.67
2018-09-21T17:01:03.398Z,16.80
2018-09-21T17:03:31.589Z,21.77
2018-09-21T17:05:59.658Z,20.53
2018-09-21T17:08:27.741Z,13.90
2018-09-21T17:10:55.818Z,19.97
2018-09-21T17:13:23.915Z,17.50
2018-09-21T17:15:52.303Z,11.87
2018-09-21T17:18:20.444Z,13.90
2018-09-21T17:20:48.554Z,12.00
2018-09-21T17:23:17.515Z,8.37
2018-09-21T17:25:45.979Z,6.43
2018-09-21T17:28:14.903Z,11.57
2018-09-21T17:30:43.519Z,9.67
2018-09-21T17:33:11.663Z,6.63
2018-09-21T17:35:39.871Z,8.80
2018-09-21T17:38:07.987Z,9.20
2018-09-21T17:40:36.081Z,6.70
2018-09-21T17:43:04.183Z,4.63
2018-09-21T17:45:32.330Z,8.87
2018-09-21T17:48:00.470Z,6.87
2018-09-21T17:50:28.635Z,6.07
2018-09-21T17:52:56.784Z,3.37
2018-09-21T17:55:24.872Z,3.77
2018-09-21T17:57:53.038Z,7.07
2018-09-21T18:00:21.167Z,5.23
2018-09-21T18:02:50.076Z,5.03
2018-09-21T18:05:18.199Z,3.33
2018-09-21T18:07:46.334Z,3.13
2018-09-21T18:10:14.522Z,2.93
2018-09-21T18:12:42.607Z,5.73
2018-09-21T18:15:10.736Z,4.60
2018-09-21T18:17:38.882Z,3.77
2018-09-21T18:20:06.978Z,4.53
2018-09-21T18:22:35.078Z,6.23
2018-09-21T18:25:03.184Z,5.70
2018-09-21T18:27:31.483Z,6.33
2018-09-21T18:29:59.574Z,4.40
2018-09-21T18:32:28.510Z,2.77
2018-09-21T18:34:56.599Z,5.77
2018-09-21T18:37:24.801Z,1.50
2018-09-21T18:39:52.879Z,2.07
2018-09-21T18:42:20.991Z,2.43
2018-09-21T18:44:49.123Z,3.70
2018-09-21T18:47:17.202Z,2.73
2018-09-21T18:49:45.221Z,3.10
2018-09-21T18:52:14.627Z,3.70
2018-09-21T18:54:42.674Z,2.57
2018-09-21T18:57:10.833Z,3.60
2018-09-21T18:59:38.916Z,3.60
2018-09-21T19:02:07.038Z,7.30
2018-09-21T19:04:35.188Z,3.20
2018-09-21T19:07:07.446Z,2.50
2018-09-21T19:09:35.523Z,6.10
2018-09-21T19:12:03.602Z,4.93
2018-09-21T19:14:31.685Z,5.80
2018-09-21T19:16:59.859Z,7.83
2018-09-21T19:19:27.914Z,5.80
2018-09-21T19:21:55.979Z,8.47
2018-09-21T19:24:24.105Z,4.23
2018-09-21T19:26:52.247Z,9.17
2018-09-21T19:29:21.490Z,9.30
2018-09-21T19:31:49.576Z,11.83
2018-09-21T19:34:17.659Z,8.37
2018-09-21T19:36:45.742Z,10.33
2018-09-21T19:39:13.846Z,9.27
2018-09-21T19:41:41.902Z,6.60
2018-09-21T19:44:09.977Z,9.87
2018-09-21T19:46:38.120Z,7.70
2018-09-21T19:49:06.154Z,5.63
2018-09-21T19:51:34.322Z,8.57
2018-09-21T19:54:02.378Z,11.17
2018-09-21T19:56:30.534Z,8.23
2018-09-21T19:58:58.590Z,11.53
2018-09-21T20:01:26.732Z,8.33
2018-09-21T20:03:54.901Z,7.60
2018-09-21T20:06:23.036Z,7.53
2018-09-21T20:08:51.098Z,7.63
2018-09-21T20:11:19.205Z,6.60
2018-09-21T20:13:47.265Z,8.47
2018-09-21T20:16:15.375Z,7.40
2018-09-21T20:18:43.448Z,6.80
2018-09-21T20:21:11.545Z,9.53
2018-09-21T20:23:39.846Z,7.43
2018-09-21T20:26:08.324Z,8.43
2018-09-21T20:28:36.402Z,10.67
2018-09-21T20:31:09.925Z,10.57
2018-09-21T20:33:38.008Z,8.03
2018-09-21T20:36:06.170Z,12.73
2018-09-21T20:38:34.234Z,9.70
2018-09-21T20:41:02.315Z,9.07
2018-09-21T20:43:30.464Z,8.47
2018-09-21T20:45:58.520Z,11.03
2018-09-21T20:48:26.595Z,7.57
2018-09-21T20:50:54.749Z,14.77
2018-09-21T20:53:23.461Z,8.60
2018-09-21T20:55:51.706Z,14.60
2018-09-21T20:58:19.862Z,18.83
2018-09-21T21:00:47.955Z,10.50
2018-09-21T21:03:16.050Z,10.43
2018-09-21T21:05:44.138Z,13.27
2018-09-21T21:08:12.361Z,7.67
2018-09-21T21:10:40.498Z,9.47
2018-09-21T21:13:08.689Z,9.07
2018-09-21T21:15:36.770Z,12.30
2018-09-21T21:18:04.894Z,9.27
2018-09-21T21:20:33.006Z,10.57
2018-09-21T21:23:01.071Z,8.83
2018-09-21T21:25:29.207Z,8.57
2018-09-21T21:27:57.369Z,19.53
2018-09-21T21:30:25.490Z,7.30
2018-09-21T21:32:53.638Z,8.37
2018-09-21T21:35:21.717Z,7.27
2018-09-21T21:37:49.774Z,3.60
2018-09-21T21:40:18.207Z,7.60
2018-09-21T21:42:46.310Z,5.13
2018-09-21T21:45:14.362Z,2.20
2018-09-21T21:47:42.414Z,10.17
2018-09-21T21:50:10.477Z,6.90
2018-09-21T21:52:38.977Z,6.67
2018-09-21T21:55:07.130Z,8.47
2018-09-21T21:57:35.196Z,7.03
2018-09-21T22:00:03.266Z,4.70
2018-09-21T22:02:35.811Z,5.30
2018-09-21T22:05:04.567Z,6.23
2018-09-21T22:07:34.846Z,9.90
2018-09-21T22:10:04.242Z,10.30
2018-09-21T22:12:37.678Z,13.17
2018-09-21T22:15:10.197Z,5.77
2018-09-21T22:17:38.252Z,3.80
2018-09-21T22:20:06.330Z,10.00
2018-09-21T22:22:34.402Z,8.80
2018-09-21T22:25:04.523Z,3.77
2018-09-21T22:27:32.658Z,4.97
2018-09-21T22:30:00.734Z,13.00
2018-09-21T22:32:28.858Z,4.43
2018-09-21T22:34:56.970Z,1.87
2018-09-21T22:37:25.297Z,8.27
2018-09-21T22:39:53.354Z,4.90
2018-09-21T22:42:21.503Z,8.20
2018-09-21T22:44:49.809Z,4.33
2018-09-21T22:47:17.913Z,3.50
2018-09-21T22:49:46.575Z,4.87
2018-09-21T22:52:14.691Z,4.43
2018-09-21T22:54:42.758Z,2.90
2018-09-21T22:57:11.241Z,3.80
2018-09-21T22:59:39.347Z,3.73
2018-09-21T23:02:07.448Z,9.50
2018-09-21T23:04:35.514Z,3.77
2018-09-21T23:07:03.622Z,4.83
2018-09-21T23:09:31.682Z,2.53
2018-09-21T23:11:59.755Z,5.70
2018-09-21T23:14:27.862Z,1.97
2018-09-21T23:16:55.938Z,2.63
2018-09-21T23:19:23.978Z,3.20
2018-09-21T23:21:52.076Z,6.13
2018-09-21T23:24:20.175Z,3.07
2018-09-21T23:26:48.242Z,2.30
2018-09-21T23:29:16.311Z,2.90
2018-09-21T23:31:44.402Z,2.30
2018-09-21T23:34:12.429Z,4.07
2018-09-21T23:36:40.486Z,2.33
2018-09-21T23:39:09.270Z,5.03
2018-09-21T23:41:37.660Z,3.63
2018-09-21T23:44:05.736Z,3.47
2018-09-21T23:46:33.876Z,5.37
2018-09-21T23:49:01.927Z,5.80
2018-09-21T23:51:30.006Z,2.20
2018-09-21T23:53:58.105Z,3.10
2018-09-21T23:56:26.157Z,5.87
2018-09-21T23:58:54.231Z,1.07
